createdAt,value
2022-11-14T00:01:12.745Z,5.12
2022-11-14T00:03:40.087Z,5.10
2022-11-14T00:06:08.026Z,5.10
2022-11-14T00:08:35.487Z,5.05
2022-11-14T00:11:02.485Z,5.10
2022-11-14T00:13:29.453Z,5.10
2022-11-14T00:15:56.441Z,5.13
2022-11-14T00:18:23.860Z,4.81
2022-11-14T00:20:52.648Z,4.97
2022-11-14T00:23:21.129Z,4.93
2022-11-14T00:25:48.453Z,4.99
2022-11-14T00:28:15.529Z,4.80
2022-11-14T00:30:46.420Z,4.82
2022-11-14T00:33:18.702Z,4.83
2022-11-14T00:35:54.440Z,4.85
2022-11-14T00:38:23.003Z,4.90
2022-11-14T00:40:49.950Z,4.92
2022-11-14T00:43:17.090Z,4.89
2022-11-14T00:45:47.617Z,4.92
2022-11-14T00:48:16.003Z,4.93
2022-11-14T00:50:43.425Z,4.92
2022-11-14T00:53:10.507Z,4.81
2022-11-14T00:55:37.452Z,4.81
2022-11-14T00:58:04.632Z,4.83
2022-11-14T01:00:31.673Z,4.88
2022-11-14T01:02:58.734Z,4.93
2022-11-14T01:05:26.239Z,4.99
2022-11-14T01:07:53.557Z,4.97
2022-11-14T01:10:21.275Z,5.01
2022-11-14T01:12:48.362Z,5.03
2022-11-14T01:15:15.386Z,5.02
2022-11-14T01:17:42.393Z,4.96
2022-11-14T01:20:09.839Z,4.85
2022-11-14T01:22:36.791Z,4.80
2022-11-14T01:25:03.940Z,4.65
2022-11-14T01:27:31.664Z,4.75
2022-11-14T01:29:58.682Z,4.84
2022-11-14T01:32:26.913Z,4.87
2022-11-14T01:34:53.892Z,4.91
2022-11-14T01:37:20.979Z,4.96
2022-11-14T01:39:47.906Z,4.97
2022-11-14T01:42:16.301Z,4.96
2022-11-14T01:44:48.582Z,4.95
2022-11-14T01:47:21.052Z,4.92
2022-11-14T01:49:54.047Z,4.94
2022-11-14T01:52:35.357Z,4.98
2022-11-14T01:55:08.233Z,4.92
2022-11-14T01:57:44.473Z,4.98
2022-11-14T02:00:13.136Z,5.01
2022-11-14T02:02:40.074Z,4.89
2022-11-14T02:05:35.823Z,4.81
2022-11-14T02:08:20.226Z,4.74
2022-11-14T02:11:18.525Z,4.80
2022-11-14T02:14:01.567Z,4.63
2022-11-14T02:17:07.214Z,4.72
2022-11-14T02:20:20.466Z,4.63
2022-11-14T02:22:47.385Z,4.50
2022-11-14T02:25:18.832Z,4.50
2022-11-14T02:27:45.806Z,4.31
2022-11-14T02:30:20.786Z,4.39
2022-11-14T02:35:35.018Z,4.19
2022-11-14T02:38:01.915Z,4.12
2022-11-14T02:40:28.887Z,4.16
2022-11-14T02:42:55.774Z,4.15
2022-11-14T02:45:22.689Z,4.09
2022-11-14T02:47:49.592Z,4.05
2022-11-14T02:50:17.397Z,4.03
2022-11-14T02:52:44.399Z,4.16
2022-11-14T02:55:11.476Z,4.18
2022-11-14T02:57:38.409Z,4.14
2022-11-14T03:00:09.969Z,4.08
2022-11-14T03:02:40.390Z,4.01
2022-11-14T03:05:08.014Z,3.99
2022-11-14T03:07:34.969Z,3.94
2022-11-14T03:10:02.549Z,3.98
2022-11-14T03:12:29.494Z,4.02
2022-11-14T03:14:56.453Z,4.10
2022-11-14T03:17:24.885Z,4.20
2022-11-14T03:19:51.850Z,4.18
2022-11-14T03:22:18.769Z,3.95
2022-11-14T03:24:45.643Z,3.90
2022-11-14T03:27:12.585Z,3.77
2022-11-14T03:29:39.505Z,3.94
2022-11-14T03:32:06.630Z,3.93
2022-11-14T03:34:33.857Z,4.09
2022-11-14T03:37:00.888Z,4.07
2022-11-14T03:39:28.136Z,3.87
2022-11-14T03:41:55.055Z,3.97
2022-11-14T03:44:22.226Z,3.78
2022-11-14T03:46:49.176Z,3.72
2022-11-14T03:49:16.066Z,3.82
2022-11-14T03:51:42.983Z,3.84
2022-11-14T03:54:10.290Z,3.86
2022-11-14T03:56:37.241Z,3.93
2022-11-14T03:59:04.134Z,4.03
2022-11-14T04:01:31.149Z,3.92
2022-11-14T04:03:58.073Z,3.89
2022-11-14T04:06:25.011Z,3.83
2022-11-14T04:08:52.200Z,3.94
2022-11-14T04:11:19.875Z,3.79
2022-11-14T04:13:46.800Z,3.95
2022-11-14T04:16:13.931Z,3.99
2022-11-14T04:18:40.812Z,4.03
2022-11-14T04:21:07.835Z,3.95
2022-11-14T04:23:34.743Z,3.97
2022-11-14T04:26:01.972Z,3.98
2022-11-14T04:28:29.065Z,3.98
2022-11-14T04:30:56.128Z,3.91
2022-11-14T04:33:23.105Z,3.93
2022-11-14T04:35:50.330Z,3.89
2022-11-14T04:38:17.328Z,3.90
2022-11-14T04:40:51.490Z,3.96
2022-11-14T04:43:19.574Z,3.84
2022-11-14T04:45:47.147Z,3.64
2022-11-14T04:48:14.281Z,3.67
2022-11-14T04:50:41.146Z,3.76
2022-11-14T04:53:08.087Z,3.84
2022-11-14T04:55:35.051Z,3.93
2022-11-14T04:58:02.774Z,3.93
2022-11-14T05:00:29.783Z,3.99
2022-11-14T05:02:59.168Z,3.99
2022-11-14T05:05:26.105Z,3.98
2022-11-14T05:07:54.676Z,3.99
2022-11-14T05:10:21.608Z,3.93
2022-11-14T05:12:48.505Z,3.91
2022-11-14T05:15:15.421Z,4.12
2022-11-14T05:17:42.322Z,4.09
2022-11-14T05:20:09.904Z,3.84
2022-11-14T05:22:37.017Z,3.83
2022-11-14T05:25:04.087Z,3.81
2022-11-14T05:27:32.103Z,3.81
2022-11-14T05:29:59.004Z,3.88
2022-11-14T05:32:25.965Z,3.88
2022-11-14T05:34:52.884Z,3.80
2022-11-14T05:37:19.830Z,3.73
2022-11-14T05:39:46.954Z,3.84
2022-11-14T05:42:13.862Z,3.72
2022-11-14T05:44:40.925Z,3.74
2022-11-14T05:47:07.878Z,3.84
2022-11-14T05:49:34.746Z,3.93
2022-11-14T05:52:01.640Z,3.92
2022-11-14T05:54:28.515Z,3.93
2022-11-14T05:56:55.565Z,3.95
2022-11-14T05:59:22.613Z,3.86
2022-11-14T06:01:49.578Z,3.89
2022-11-14T06:04:16.612Z,3.86
2022-11-14T06:06:43.615Z,3.97
2022-11-14T06:09:10.835Z,4.03
2022-11-14T06:11:39.793Z,3.92
2022-11-14T06:14:10.452Z,3.97
2022-11-14T06:16:38.015Z,3.85
2022-11-14T06:19:05.649Z,3.82
2022-11-14T06:21:32.627Z,3.88
2022-11-14T06:23:59.711Z,3.87
2022-11-14T06:26:32.906Z,3.86
2022-11-14T06:29:00.985Z,3.84
2022-11-14T06:31:28.373Z,3.88
2022-11-14T06:33:55.420Z,3.95
2022-11-14T06:36:22.359Z,3.98
2022-11-14T06:38:49.266Z,4.01
2022-11-14T06:41:18.459Z,3.88
2022-11-14T06:43:48.364Z,3.88
2022-11-14T06:46:18.413Z,3.86
2022-11-14T06:48:46.723Z,3.86
2022-11-14T06:51:15.786Z,3.84
2022-11-14T06:53:43.465Z,4.03
2022-11-14T06:56:16.059Z,4.08
2022-11-14T06:58:46.466Z,4.11
2022-11-14T07:01:13.647Z,4.22
2022-11-14T07:03:41.822Z,4.21
2022-11-14T07:06:10.815Z,4.34
2022-11-14T07:08:38.340Z,4.39
2022-11-14T07:11:10.599Z,4.49
2022-11-14T07:13:38.452Z,4.59
2022-11-14T07:16:06.083Z,4.65
2022-11-14T07:18:34.384Z,4.67
2022-11-14T07:21:04.206Z,4.60
2022-11-14T07:23:32.998Z,4.59
2022-11-14T07:26:04.845Z,4.45
2022-11-14T07:28:32.515Z,4.26
2022-11-14T07:30:59.850Z,4.32
2022-11-14T07:33:26.718Z,4.30
2022-11-14T07:35:53.631Z,4.31
2022-11-14T07:38:20.570Z,4.42
2022-11-14T07:40:59.657Z,4.52
2022-11-14T07:43:27.889Z,4.66
2022-11-14T07:45:59.034Z,4.69
2022-11-14T07:48:25.952Z,4.64
2022-11-14T07:50:53.267Z,4.52
2022-11-14T07:53:20.564Z,4.77
2022-11-14T07:55:47.471Z,4.78
2022-11-14T07:58:14.450Z,4.74
2022-11-14T08:00:41.500Z,4.86
2022-11-14T08:03:08.916Z,4.64
2022-11-14T08:05:36.046Z,4.52
2022-11-14T08:08:03.088Z,4.52
2022-11-14T08:10:33.554Z,4.67
2022-11-14T08:13:33.482Z,4.87
2022-11-14T08:15:50.543Z,5.00
2022-11-14T08:18:17.598Z,5.08
2022-11-14T08:20:45.188Z,5.22
2022-11-14T08:23:13.346Z,5.25
2022-11-14T08:25:41.041Z,5.21
2022-11-14T08:28:08.078Z,5.38
2022-11-14T08:30:35.504Z,5.46
2022-11-14T08:33:04.348Z,5.45
2022-11-14T08:35:31.400Z,5.56
2022-11-14T08:37:58.297Z,5.58
2022-11-14T08:40:25.400Z,5.52
2022-11-14T08:42:52.358Z,5.18
2022-11-14T08:45:19.347Z,5.25
2022-11-14T08:47:53.633Z,5.41
2022-11-14T08:50:20.548Z,5.58
2022-11-14T08:52:51.789Z,5.69
2022-11-14T08:55:20.122Z,5.73
2022-11-14T08:57:49.623Z,5.72
2022-11-14T09:00:18.420Z,5.72
2022-11-14T09:02:45.591Z,5.53
2022-11-14T09:05:12.633Z,5.20
2022-11-14T09:07:39.557Z,5.20
2022-11-14T09:10:07.421Z,5.34
2022-11-14T09:12:34.538Z,5.26
2022-11-14T09:15:01.612Z,5.17
2022-11-14T09:17:28.627Z,5.47
2022-11-14T09:19:56.100Z,5.69
2022-11-14T09:22:23.578Z,5.84
2022-11-14T09:24:52.244Z,5.94
2022-11-14T09:27:19.308Z,6.04
2022-11-14T09:29:46.370Z,6.19
2022-11-14T09:32:13.279Z,6.20
2022-11-14T09:34:43.211Z,6.16
2022-11-14T09:37:10.429Z,5.87
2022-11-14T09:39:40.836Z,5.95
2022-11-14T09:42:26.679Z,5.76
2022-11-14T09:44:59.764Z,6.00
2022-11-14T09:47:31.282Z,6.16
2022-11-14T09:50:11.673Z,5.99
2022-11-14T09:52:46.692Z,5.81
2022-11-14T09:55:37.213Z,6.06
2022-11-14T09:58:18.848Z,6.14
2022-11-14T10:01:11.486Z,6.19
2022-11-14T10:04:13.198Z,6.49
2022-11-14T10:07:27.803Z,6.72
2022-11-14T10:10:56.562Z,6.75
2022-11-14T10:14:00.610Z,6.74
2022-11-14T10:16:39.689Z,6.80
2022-11-14T10:19:41.432Z,6.81
2022-11-14T10:22:47.019Z,6.72
2022-11-14T10:25:23.184Z,6.79
2022-11-14T10:28:28.414Z,6.63
2022-11-14T10:31:29.100Z,6.71
2022-11-14T10:34:26.695Z,6.93
2022-11-14T10:37:05.426Z,7.06
2022-11-14T10:39:32.296Z,7.16
2022-11-14T10:42:07.818Z,7.01
2022-11-14T10:44:50.756Z,6.73
2022-11-14T10:47:25.368Z,6.42
2022-11-14T10:49:56.306Z,6.27
2022-11-14T10:52:36.701Z,6.26
2022-11-14T10:55:10.570Z,6.41
2022-11-14T10:57:37.491Z,6.26
2022-11-14T11:00:12.960Z,6.37
2022-11-14T11:02:55.732Z,6.49
2022-11-14T11:05:31.122Z,6.61
2022-11-14T11:11:32.313Z,6.39
2022-11-14T11:14:01.620Z,6.33
2022-11-14T11:16:29.982Z,6.18
2022-11-14T11:19:21.774Z,6.29
2022-11-14T11:21:51.413Z,6.45
2022-11-14T11:24:33.296Z,6.34
2022-11-14T11:27:25.952Z,6.44
2022-11-14T11:30:19.972Z,6.40
2022-11-14T11:32:46.884Z,6.31
2022-11-14T11:35:16.503Z,6.68
2022-11-14T11:37:57.344Z,6.93
2022-11-14T11:40:26.901Z,6.95
2022-11-14T11:45:54.905Z,6.69
2022-11-14T11:48:23.971Z,6.55
2022-11-14T11:50:50.985Z,6.24
2022-11-14T11:53:44.459Z,6.22
2022-11-14T11:56:20.184Z,6.14
2022-11-14T11:58:51.095Z,6.24
2022-11-14T12:01:18.712Z,6.42
2022-11-14T12:03:51.885Z,6.70
2022-11-14T12:06:25.517Z,7.00
2022-11-14T12:09:21.007Z,7.22
2022-11-14T12:11:56.969Z,7.44
2022-11-14T12:14:54.764Z,7.56
2022-11-14T12:17:30.961Z,7.63
2022-11-14T12:20:06.781Z,7.62
2022-11-14T12:23:03.472Z,7.72
2022-11-14T12:25:47.006Z,7.75
2022-11-14T12:28:32.599Z,7.86
2022-11-14T12:31:05.811Z,7.87
2022-11-14T12:33:33.029Z,7.95
2022-11-14T12:36:03.221Z,7.88
2022-11-14T12:38:42.710Z,7.82
2022-11-14T12:41:10.441Z,7.73
2022-11-14T12:43:40.630Z,7.78
2022-11-14T12:46:09.982Z,7.83
2022-11-14T12:48:39.526Z,7.89
2022-11-14T12:51:26.671Z,7.79
2022-11-14T12:53:58.261Z,7.79
2022-11-14T12:56:31.347Z,7.80
2022-11-14T12:59:06.973Z,7.72
2022-11-14T13:01:52.317Z,7.83
2022-11-14T13:04:41.078Z,7.89
2022-11-14T13:07:31.364Z,7.79
2022-11-14T13:10:15.213Z,7.69
2022-11-14T13:13:15.254Z,7.56
2022-11-14T13:16:26.467Z,7.54
2022-11-14T13:19:35.596Z,7.48
2022-11-14T13:22:11.794Z,7.51
2022-11-14T13:25:00.049Z,7.55
2022-11-14T13:28:05.283Z,7.62
2022-11-14T13:31:01.011Z,7.45
2022-11-14T13:33:42.312Z,7.30
2022-11-14T13:36:35.363Z,7.26
2022-11-14T13:39:24.050Z,7.16
2022-11-14T13:42:09.443Z,6.99
2022-11-14T13:44:45.413Z,6.92
2022-11-14T13:47:27.281Z,6.92
2022-11-14T13:50:03.384Z,6.80
2022-11-14T13:52:35.893Z,6.81
2022-11-14T13:55:03.174Z,6.85
2022-11-14T13:57:32.939Z,6.82
2022-11-14T14:00:19.721Z,6.69
2022-11-14T14:03:11.232Z,6.56
2022-11-14T14:05:52.397Z,6.53
2022-11-14T14:08:32.338Z,6.43
2022-11-14T14:11:46.334Z,6.36
2022-11-14T14:14:22.820Z,6.31
2022-11-14T14:16:58.938Z,6.30
2022-11-14T14:20:07.945Z,6.18
2022-11-14T14:22:51.776Z,6.10
2022-11-14T14:25:30.126Z,6.05
2022-11-14T14:28:21.414Z,6.02
2022-11-14T14:31:11.890Z,5.99
2022-11-14T14:33:47.307Z,5.84
2022-11-14T14:36:29.170Z,5.70
2022-11-14T14:39:28.927Z,5.68
2022-11-14T14:41:58.778Z,5.61
2022-11-14T14:44:27.598Z,5.56
2022-11-14T14:46:54.944Z,5.48
2022-11-14T14:49:38.523Z,5.43
2022-11-14T14:52:31.089Z,5.40
2022-11-14T14:54:59.069Z,5.30
2022-11-14T14:57:26.313Z,5.21
2022-11-14T15:00:07.421Z,5.12
2022-11-14T15:02:34.677Z,5.03
2022-11-14T15:05:03.034Z,5.06
2022-11-14T15:07:30.628Z,5.03
2022-11-14T15:10:03.032Z,5.01
2022-11-14T15:12:31.730Z,5.00
2022-11-14T15:15:01.261Z,5.05
2022-11-14T15:17:35.659Z,5.05
2022-11-14T15:20:03.413Z,5.04
2022-11-14T15:22:30.423Z,5.03
2022-11-14T15:25:12.539Z,5.00
2022-11-14T15:27:52.285Z,4.76
2022-11-14T15:30:37.304Z,5.03
2022-11-14T15:33:07.051Z,5.06
2022-11-14T15:35:36.976Z,5.14
2022-11-14T15:38:54.562Z,5.16
2022-11-14T15:41:30.613Z,5.13
2022-11-14T15:44:05.825Z,5.03
2022-11-14T15:46:42.023Z,4.99
2022-11-14T15:49:14.739Z,5.11
2022-11-14T15:51:46.447Z,4.95
2022-11-14T15:54:21.184Z,5.05
2022-11-14T15:56:48.303Z,5.07
2022-11-14T15:59:15.251Z,5.10
2022-11-14T16:01:44.820Z,5.09
2022-11-14T16:04:19.394Z,5.09
2022-11-14T16:06:46.837Z,5.02
2022-11-14T16:09:18.964Z,5.04
2022-11-14T16:11:48.766Z,4.97
2022-11-14T16:14:16.431Z,5.03
2022-11-14T16:16:43.409Z,5.07
2022-11-14T16:19:14.417Z,5.04
2022-11-14T16:21:41.796Z,5.03
2022-11-14T16:24:23.933Z,5.03
2022-11-14T16:26:50.939Z,5.03
2022-11-14T16:29:18.048Z,4.98
2022-11-14T16:31:45.057Z,5.07
2022-11-14T16:34:19.381Z,5.11
2022-11-14T16:36:46.415Z,5.18
2022-11-14T16:39:13.949Z,5.25
2022-11-14T16:41:41.641Z,5.24
2022-11-14T16:44:14.710Z,4.96
2022-11-14T16:46:41.965Z,5.03
2022-11-14T16:49:17.828Z,5.09
2022-11-14T16:51:49.638Z,5.14
2022-11-14T16:54:23.711Z,5.21
2022-11-14T16:56:52.662Z,5.25
2022-11-14T16:59:19.816Z,5.09
2022-11-14T17:01:48.479Z,5.18
2022-11-14T17:04:15.470Z,5.21
2022-11-14T17:06:43.884Z,5.17
2022-11-14T17:09:13.877Z,5.29
2022-11-14T17:11:40.786Z,5.15
2022-11-14T17:14:07.836Z,5.12
2022-11-14T17:16:34.839Z,5.22
2022-11-14T17:19:02.205Z,5.28
2022-11-14T17:21:29.787Z,5.27
2022-11-14T17:24:00.572Z,5.17
2022-11-14T17:26:28.579Z,5.02
2022-11-14T17:28:55.526Z,5.06
2022-11-14T17:31:22.468Z,5.04
2022-11-14T17:33:54.488Z,5.05
2022-11-14T17:36:23.042Z,4.90
2022-11-14T17:38:50.159Z,4.96
2022-11-14T17:41:17.952Z,5.07
2022-11-14T17:43:45.487Z,5.04
2022-11-14T17:46:15.937Z,5.07
2022-11-14T17:48:46.751Z,5.19
2022-11-14T17:51:16.145Z,5.25
2022-11-14T17:53:44.193Z,5.29
2022-11-14T17:56:19.193Z,5.34
2022-11-14T17:58:46.860Z,5.33
2022-11-14T18:01:17.067Z,5.38
2022-11-14T18:03:44.115Z,5.45
2022-11-14T18:06:13.771Z,5.36
2022-11-14T18:08:40.903Z,5.39
2022-11-14T18:11:10.398Z,5.25
2022-11-14T18:13:38.975Z,5.11
2022-11-14T18:16:10.628Z,5.02
2022-11-14T18:18:38.366Z,4.98
2022-11-14T18:21:25.758Z,5.07
2022-11-14T18:23:54.855Z,5.08
2022-11-14T18:26:28.219Z,4.98
2022-11-14T18:28:57.011Z,4.92
2022-11-14T18:31:24.442Z,4.84
2022-11-14T18:33:51.743Z,4.76
2022-11-14T18:36:19.216Z,4.90
2022-11-14T18:38:47.049Z,4.93
2022-11-14T18:41:17.064Z,4.98
2022-11-14T18:43:44.761Z,5.05
2022-11-14T18:46:17.805Z,5.09
2022-11-14T18:48:47.714Z,5.01
2022-11-14T18:51:18.970Z,5.09
2022-11-14T18:53:46.302Z,5.07
2022-11-14T18:56:16.971Z,5.02
2022-11-14T18:58:44.939Z,5.17
2022-11-14T19:01:18.563Z,5.19
2022-11-14T19:03:45.521Z,5.22
2022-11-14T19:06:13.321Z,5.25
2022-11-14T19:08:41.416Z,5.25
2022-11-14T19:11:33.933Z,5.23
2022-11-14T19:14:02.544Z,5.25
2022-11-14T19:16:32.717Z,5.24
2022-11-14T19:19:00.499Z,5.16
2022-11-14T19:21:29.123Z,5.20
2022-11-14T19:23:57.221Z,5.23
2022-11-14T19:26:24.462Z,5.24
2022-11-14T19:28:51.486Z,5.25
2022-11-14T19:31:19.342Z,5.22
2022-11-14T19:33:46.403Z,5.06
2022-11-14T19:36:18.780Z,4.94
2022-11-14T19:38:56.030Z,4.97
2022-11-14T19:41:27.737Z,4.93
2022-11-14T19:43:57.100Z,4.94
2022-11-14T19:46:27.304Z,4.87
2022-11-14T19:48:58.988Z,4.88
2022-11-14T19:51:26.492Z,4.80
2022-11-14T19:53:53.527Z,4.74
2022-11-14T19:56:20.737Z,4.75
2022-11-14T19:58:49.399Z,4.72
2022-11-14T20:01:19.511Z,4.83
2022-11-14T20:04:00.526Z,4.82
2022-11-14T20:06:34.309Z,4.67
2022-11-14T20:09:06.659Z,4.63
2022-11-14T20:11:34.048Z,4.64
2022-11-14T20:14:02.492Z,4.70
2022-11-14T20:16:32.650Z,4.65
2022-11-14T20:19:00.940Z,4.65
2022-11-14T20:21:31.348Z,4.80
2022-11-14T20:23:58.909Z,4.85
2022-11-14T20:26:26.521Z,4.78
2022-11-14T20:28:54.985Z,4.93
2022-11-14T20:31:25.706Z,4.95
2022-11-14T20:33:54.579Z,4.87
2022-11-14T20:36:24.462Z,4.73
2022-11-14T20:38:53.661Z,4.68
2022-11-14T20:41:21.140Z,4.71
2022-11-14T20:43:48.400Z,4.82
2022-11-14T20:46:20.101Z,4.91
2022-11-14T20:48:47.909Z,4.74
2022-11-14T20:51:20.235Z,4.67
2022-11-14T20:53:48.418Z,4.67
2022-11-14T20:56:16.645Z,4.60
2022-11-14T20:58:45.520Z,4.72
2022-11-14T21:01:12.567Z,4.67
2022-11-14T21:03:40.142Z,4.77
2022-11-14T21:06:08.431Z,4.76
2022-11-14T21:08:36.809Z,4.79
2022-11-14T21:11:06.834Z,4.76
2022-11-14T21:13:56.542Z,4.72
2022-11-14T21:16:43.697Z,4.61
2022-11-14T21:19:10.777Z,4.56
2022-11-14T21:21:38.318Z,4.48
2022-11-14T21:24:05.675Z,4.38
2022-11-14T21:26:36.929Z,4.40
2022-11-14T21:29:07.591Z,4.42
2022-11-14T21:31:37.577Z,4.41
2022-11-14T21:34:11.229Z,4.49
2022-11-14T21:36:47.094Z,4.59
2022-11-14T21:39:16.160Z,4.65
2022-11-14T21:41:44.443Z,4.57
2022-11-14T21:44:13.851Z,4.56
2022-11-14T21:46:41.432Z,4.34
2022-11-14T21:49:09.317Z,4.31
2022-11-14T21:51:36.345Z,4.44
2022-11-14T21:54:03.436Z,4.50
2022-11-14T21:56:35.921Z,4.59
2022-11-14T21:59:15.881Z,4.59
2022-11-14T22:02:06.057Z,4.70
2022-11-14T22:04:33.853Z,4.68
2022-11-14T22:07:08.419Z,4.49
2022-11-14T22:09:38.665Z,4.36
2022-11-14T22:12:08.222Z,4.20
2022-11-14T22:14:35.268Z,4.24
2022-11-14T22:17:02.201Z,4.25
2022-11-14T22:19:29.212Z,4.04
2022-11-14T22:21:56.209Z,4.27
2022-11-14T22:24:23.990Z,4.13
2022-11-14T22:26:51.098Z,4.09
2022-11-14T22:29:18.268Z,3.96
2022-11-14T22:31:45.472Z,4.16
2022-11-14T22:34:12.759Z,4.05
2022-11-14T22:36:39.824Z,4.07
2022-11-14T22:39:06.839Z,4.03
2022-11-14T22:41:34.065Z,4.08
2022-11-14T22:44:01.988Z,4.25
2022-11-14T22:46:29.453Z,4.29
2022-11-14T22:48:56.722Z,4.33
2022-11-14T22:51:26.045Z,4.39
2022-11-14T22:53:55.398Z,4.46
2022-11-14T22:56:25.362Z,4.37
2022-11-14T22:58:52.565Z,4.39
2022-11-14T23:01:29.883Z,4.47
2022-11-14T23:04:01.850Z,4.30
2022-11-14T23:06:30.703Z,4.36
2022-11-14T23:08:58.096Z,4.42
2022-11-14T23:11:28.256Z,4.31
2022-11-14T23:13:57.425Z,4.24
2022-11-14T23:16:29.586Z,4.26
2022-11-14T23:18:59.021Z,4.39
2022-11-14T23:21:38.006Z,4.37
2022-11-14T23:24:08.906Z,4.35
2022-11-14T23:26:35.917Z,4.32
2022-11-14T23:29:02.915Z,4.42
2022-11-14T23:31:29.934Z,4.47
2022-11-14T23:33:58.386Z,4.35
2022-11-14T23:36:25.478Z,4.44
2022-11-14T23:38:53.537Z,4.41
2022-11-14T23:41:23.113Z,4.49
2022-11-14T23:43:50.135Z,4.47
2022-11-14T23:46:17.184Z,4.53
2022-11-14T23:48:44.154Z,4.58
2022-11-14T23:51:11.184Z,4.61
2022-11-14T23:53:38.122Z,4.50
2022-11-14T23:56:05.546Z,4.67
2022-11-14T23:58:32.461Z,4.69
